Time;durP1;ratioP1;P1;durP2;ratioP2;P2;SDS_P1;SDS_P2;PMS_P1;PMS_P2;Temp;Humidity;BMP_temperature;BMP_pressure;BME280_temperature;BME280_humidity;BME280_pressure;Samples;Min_cycle;Max_cycle;Signal;HPM_P1;HPM_P2
2023/11/09 00:00:13;;;;;;;19.70;12.60;;;;;;;3.29;87.96;100131.64;130173;1254;114722;-59
2023/11/09 00:03:36;;;;;;;19.40;12.90;;;;;;;3.28;88.13;100142.06;130141;1272;115297;-59
2023/11/09 00:06:38;;;;;;;19.90;13.90;;;;;;;3.26;88.36;100144.03;130227;1254;116301;-59
2023/11/09 00:09:40;;;;;;;20.50;13.20;;;;;;;3.26;88.30;100143.01;130056;1258;115127;-59
2023/11/09 00:12:43;;;;;;;25.20;13.70;;;;;;;3.26;88.31;100139.82;130053;1258;116338;-59
2023/11/09 00:15:45;;;;;;;18.00;12.30;;;;;;;3.25;88.33;100142.66;129838;1261;114847;-60
2023/11/09 00:18:48;;;;;;;19.40;12.30;;;;;;;3.23;88.42;100148.34;130053;1256;115134;-59
2023/11/09 00:21:50;;;;;;;30.90;13.50;;;;;;;3.22;88.42;100143.98;130054;1258;114779;-59
2023/11/09 00:24:52;;;;;;;19.20;13.80;;;;;;;3.20;88.50;100139.95;130085;1254;115488;-60
2023/11/09 00:27:54;;;;;;;23.60;13.90;;;;;;;3.18;88.51;100136.64;130106;1256;114692;-60
2023/11/09 00:30:57;;;;;;;16.70;11.60;;;;;;;3.15;88.40;100131.74;130140;1258;115017;-60
2023/11/09 00:33:59;;;;;;;21.50;11.80;;;;;;;3.14;88.48;100131.09;130036;1258;115093;-60
2023/11/09 00:37:04;;;;;;;22.30;12.10;;;;;;;3.12;88.53;100128.48;130352;1257;114827;-60
2023/11/09 00:40:10;;;;;;;22.80;12.50;;;;;;;3.10;88.59;100134.17;130352;1267;128878;-59
2023/11/09 00:43:12;;;;;;;23.80;11.30;;;;;;;3.08;88.43;100134.39;130191;1275;115169;-62
2023/11/09 00:46:18;;;;;;;22.50;12.50;;;;;;;3.05;88.50;100134.98;130524;1251;114776;-60
2023/11/09 00:49:20;;;;;;;22.10;11.50;;;;;;;3.01;88.43;100131.88;130229;1251;114737;-59
2023/11/09 00:52:22;;;;;;;24.40;13.60;;;;;;;2.99;88.56;100125.92;130376;1273;114759;-59
2023/11/09 00:55:24;;;;;;;20.50;12.50;;;;;;;2.98;88.73;100124.35;130255;1252;114794;-59
2023/11/09 00:58:26;;;;;;;20.20;12.70;;;;;;;2.96;88.87;100115.23;129878;1274;128809;-60
2023/11/09 01:01:30;;;;;;;16.20;11.50;;;;;;;2.94;88.89;100117.21;130164;1254;114799;-60
2023/11/09 01:04:32;;;;;;;16.70;11.90;;;;;;;2.93;88.98;100116.17;130308;1257;114695;-58
2023/11/09 01:07:34;;;;;;;17.90;11.10;;;;;;;2.91;89.00;100110.23;130447;1251;115083;-60
2023/11/09 01:10:36;;;;;;;16.60;10.60;;;;;;;2.89;88.97;100107.42;130156;1257;114787;-60
2023/11/09 01:13:38;;;;;;;17.80;11.50;;;;;;;2.88;89.11;100105.34;130217;1274;114773;-59
2023/11/09 01:16:40;;;;;;;21.10;11.20;;;;;;;2.87;89.26;100107.65;130232;1251;114734;-60
2023/11/09 01:19:43;;;;;;;20.50;11.90;;;;;;;2.86;89.20;100108.38;130352;1274;128904;-60
2023/11/09 01:22:44;;;;;;;20.50;12.00;;;;;;;2.86;89.23;100103.10;130159;1257;114705;-60
2023/11/09 01:25:47;;;;;;;20.40;11.40;;;;;;;2.85;89.30;100102.23;130341;1258;114751;-61
2023/11/09 01:28:49;;;;;;;17.00;10.30;;;;;;;2.84;89.38;100101.55;130196;1256;114795;-59
2023/11/09 01:31:51;;;;;;;15.40;9.70;;;;;;;2.84;89.58;100098.21;130240;1264;114969;-60
2023/11/09 01:34:56;;;;;;;12.60;9.00;;;;;;;2.83;89.39;100096.47;130327;1257;115256;-62
2023/11/09 01:37:58;;;;;;;18.00;10.70;;;;;;;2.82;89.45;100091.37;129917;1259;114766;-60
2023/11/09 01:41:06;;;;;;;15.80;9.40;;;;;;;2.81;89.49;100095.80;130339;1256;114788;-60
2023/11/09 01:44:08;;;;;;;18.00;9.90;;;;;;;2.79;89.49;100097.24;130022;1274;116481;-59
2023/11/09 01:47:10;;;;;;;20.20;9.40;;;;;;;2.77;89.46;100091.81;130473;1251;114757;-60
2023/11/09 01:50:12;;;;;;;17.80;10.30;;;;;;;2.76;89.55;100092.20;130340;1251;114647;-59
2023/11/09 01:53:15;;;;;;;13.60;9.90;;;;;;;2.73;89.47;100097.54;130032;1259;114786;-59
2023/11/09 01:56:18;;;;;;;20.00;9.60;;;;;;;2.70;89.43;100091.26;130055;1257;114773;-59
2023/11/09 01:59:21;;;;;;;14.50;10.00;;;;;;;2.67;89.35;100092.90;130050;1257;115765;-59
2023/11/09 02:02:25;;;;;;;17.30;10.00;;;;;;;2.64;89.31;100087.86;130023;1254;114728;-59
2023/11/09 02:05:27;;;;;;;16.40;9.10;;;;;;;2.61;89.27;100085.09;130162;1255;114766;-59
2023/11/09 02:08:29;;;;;;;13.20;8.90;;;;;;;2.58;89.11;100084.27;130127;1256;114794;-59
2023/11/09 02:21:39;;;;;;;19.30;9.40;;;;;;;2.41;89.30;100083.71;130182;1257;114770;-58
2023/11/09 02:24:44;;;;;;;17.00;9.40;;;;;;;2.38;89.25;100077.79;130032;1254;114781;-59
2023/11/09 02:27:46;;;;;;;19.90;8.50;;;;;;;2.35;89.25;100072.92;129755;1251;114796;-60
2023/11/09 02:30:49;;;;;;;16.10;8.80;;;;;;;2.33;89.56;100064.67;130110;1273;114769;-59
2023/11/09 02:33:51;;;;;;;15.00;8.00;;;;;;;2.32;89.75;100064.35;130206;1255;114721;-59
2023/11/09 02:36:54;;;;;;;15.00;8.00;;;;;;;2.31;89.75;100067.00;130205;1255;114786;-59
2023/11/09 02:39:56;;;;;;;13.60;7.70;;;;;;;2.31;89.90;100061.91;129910;1260;115273;-59
2023/11/09 02:42:58;;;;;;;16.70;8.40;;;;;;;2.30;89.69;100065.25;130164;1257;115249;-59
2023/11/09 02:46:00;;;;;;;19.70;10.10;;;;;;;2.30;89.87;100061.21;130262;1257;114729;-59
2023/11/09 02:49:02;;;;;;;14.90;9.40;;;;;;;2.29;90.09;100064.75;130269;1255;114782;-59
2023/11/09 02:52:08;;;;;;;15.00;7.60;;;;;;;2.28;89.92;100064.22;130204;1255;114708;-58
2023/11/09 02:55:09;;;;;;;12.70;7.50;;;;;;;2.29;89.99;100065.46;130292;1274;126935;-59
2023/11/09 02:58:12;;;;;;;15.90;7.80;;;;;;;2.30;90.25;100063.15;130142;1257;115400;-59
2023/11/09 03:01:14;;;;;;;14.50;8.60;;;;;;;2.30;90.21;100060.69;130431;1256;115361;-59
2023/11/09 03:04:17;;;;;;;16.30;7.50;;;;;;;2.30;90.30;100059.80;130401;1251;114805;-59
2023/11/09 03:07:20;;;;;;;13.10;7.40;;;;;;;2.30;90.27;100059.44;130346;1254;114764;-60
2023/11/09 03:10:27;;;;;;;12.10;6.80;;;;;;;2.30;90.00;100061.38;130423;1274;114734;-59
2023/11/09 03:13:29;;;;;;;10.70;7.30;;;;;;;2.29;90.14;100055.41;130257;1274;127675;-60
2023/11/09 03:16:35;;;;;;;9.60;6.40;;;;;;;2.26;90.19;100043.11;130294;1257;114786;-59
2023/11/09 03:19:39;;;;;;;10.20;6.00;;;;;;;2.27;90.22;100048.05;130422;1275;114709;-59
2023/11/09 03:22:45;;;;;;;11.20;6.50;;;;;;;2.25;90.41;100045.07;130228;1258;115196;-60
2023/11/09 03:25:47;;;;;;;9.20;6.30;;;;;;;2.26;90.57;100043.83;130139;1257;114727;-59
2023/11/09 03:28:50;;;;;;;14.40;6.10;;;;;;;2.28;90.52;100039.20;130028;1260;115250;-60
2023/11/09 03:31:53;;;;;;;12.60;6.60;;;;;;;2.30;90.84;100036.20;130055;1254;114763;-59
2023/11/09 03:34:55;;;;;;;15.20;6.00;;;;;;;2.32;90.72;100034.19;130361;1267;114808;-60
2023/11/09 03:37:57;;;;;;;9.60;5.90;;;;;;;2.36;90.96;100032.02;130159;1259;114804;-59
2023/11/09 03:40:59;;;;;;;10.00;5.40;;;;;;;2.39;91.20;100025.77;129717;1260;114826;-58
2023/11/09 03:44:01;;;;;;;11.10;5.70;;;;;;;2.43;91.28;100021.64;130071;1254;114706;-60
2023/11/09 03:47:04;;;;;;;11.90;6.40;;;;;;;2.47;91.51;100016.46;130059;1253;115724;-59
2023/11/09 03:50:07;;;;;;;10.50;5.80;;;;;;;2.50;91.29;100011.64;130108;1275;128648;-59
2023/11/09 03:53:09;;;;;;;12.40;6.10;;;;;;;2.53;91.61;100001.16;130063;1271;114738;-60
2023/11/09 03:56:11;;;;;;;10.90;5.70;;;;;;;2.57;91.59;100002.13;129989;1258;115099;-59
2023/11/09 03:59:14;;;;;;;11.30;6.10;;;;;;;2.62;91.75;99999.77;130041;1257;115088;-59
2023/11/09 04:02:16;;;;;;;9.30;6.20;;;;;;;2.65;91.66;99997.21;130116;1260;114715;-59
2023/11/09 04:05:19;;;;;;;10.70;6.00;;;;;;;2.68;91.73;99991.49;127868;1272;3345772;-58
2023/11/09 04:08:21;;;;;;;13.10;6.90;;;;;;;2.71;91.56;99987.55;130099;1261;114810;-60
2023/11/09 04:11:23;;;;;;;11.40;6.60;;;;;;;2.73;91.59;99978.50;130144;1256;114699;-60
2023/11/09 04:14:25;;;;;;;13.70;6.20;;;;;;;2.76;91.79;99978.63;130006;1254;114790;-60
2023/11/09 04:17:27;;;;;;;10.90;5.80;;;;;;;2.78;91.78;99976.45;130080;1275;115233;-60
2023/11/09 04:20:29;;;;;;;12.60;6.00;;;;;;;2.80;91.74;99969.02;130118;1266;114799;-59
2023/11/09 04:23:31;;;;;;;11.30;5.50;;;;;;;2.82;91.76;99969.31;130250;1268;114718;-59
2023/11/09 04:26:34;;;;;;;11.30;5.10;;;;;;;2.84;91.85;99959.40;129812;1257;114903;-60
2023/11/09 04:29:36;;;;;;;12.00;6.50;;;;;;;2.86;92.03;99954.23;130259;1255;114702;-60
2023/11/09 04:32:39;;;;;;;10.90;5.90;;;;;;;2.89;92.00;99955.75;130320;1254;114759;-59
2023/11/09 04:35:44;;;;;;;13.00;6.10;;;;;;;2.93;91.87;99953.54;130257;1251;127498;-59
2023/11/09 04:38:46;;;;;;;12.70;5.50;;;;;;;2.95;91.73;99958.42;129910;1274;115131;-60
2023/11/09 04:41:48;;;;;;;10.00;5.80;;;;;;;2.97;91.67;99954.51;130138;1257;114797;-60
2023/11/09 04:44:56;;;;;;;14.30;6.60;;;;;;;2.99;91.85;99954.10;130141;1255;114752;-60
2023/11/09 04:48:07;;;;;;;24.00;8.20;;;;;;;2.99;91.75;99950.39;129991;1270;114802;-60
2023/11/09 04:51:09;;;;;;;11.50;6.40;;;;;;;2.99;91.78;99939.80;129935;1275;127619;-59
2023/11/09 04:54:19;;;;;;;14.10;8.00;;;;;;;2.99;91.71;99937.33;130065;1256;114716;-59
2023/11/09 05:07:25;;;;;;;11.50;5.30;;;;;;;3.01;91.70;99926.88;129846;1264;128522;-60
2023/11/09 05:10:27;;;;;;;9.50;5.20;;;;;;;3.02;91.71;99926.15;130090;1254;114708;-59
2023/11/09 05:13:29;;;;;;;8.90;4.90;;;;;;;3.05;91.70;99928.39;130176;1257;114782;-60
2023/11/09 05:16:31;;;;;;;10.60;4.80;;;;;;;3.06;91.78;99923.23;130055;1256;114802;-59
2023/11/09 05:19:33;;;;;;;8.30;4.30;;;;;;;3.09;91.89;99926.34;130157;1254;115305;-59
2023/11/09 05:22:35;;;;;;;8.10;4.50;;;;;;;3.11;91.97;99925.23;130278;1256;115121;-59
2023/11/09 05:25:41;;;;;;;7.20;4.70;;;;;;;3.14;91.92;99922.53;129956;1276;114809;-59
2023/11/09 05:28:45;;;;;;;8.70;4.30;;;;;;;3.15;91.83;99918.23;129984;1257;128742;-59
2023/11/09 05:31:50;;;;;;;6.80;4.40;;;;;;;3.16;91.80;99910.96;129947;1257;115243;-59
2023/11/09 05:34:52;;;;;;;6.30;3.40;;;;;;;3.16;91.70;99911.52;129949;1259;115422;-59
2023/11/09 05:37:56;;;;;;;10.30;4.00;;;;;;;3.16;91.60;99912.94;129938;1270;114870;-59
2023/11/09 05:40:58;;;;;;;6.40;4.00;;;;;;;3.15;91.55;99912.78;130019;1268;114760;-59
2023/11/09 05:44:01;;;;;;;8.20;3.90;;;;;;;3.13;91.59;99905.60;129995;1253;114748;-59
2023/11/09 05:47:03;;;;;;;8.80;3.70;;;;;;;3.11;91.42;99900.35;130065;1268;114648;-60
2023/11/09 05:50:07;;;;;;;6.00;3.90;;;;;;;3.10;91.48;99900.20;129945;1254;115153;-59
2023/11/09 05:53:10;;;;;;;6.70;3.00;;;;;;;3.07;91.30;99894.11;130132;1275;114974;-59
2023/11/09 05:56:13;;;;;;;7.50;3.80;;;;;;;3.03;91.20;99891.55;130069;1253;114801;-59
2023/11/09 05:59:15;;;;;;;10.80;3.70;;;;;;;2.99;91.18;99890.59;130108;1267;114807;-59
2023/11/09 06:02:17;;;;;;;8.60;4.10;;;;;;;2.96;91.02;99885.57;130064;1256;115173;-59
2023/11/09 06:05:24;;;;;;;13.00;4.00;;;;;;;2.94;91.22;99876.43;130106;1254;128825;-59
2023/11/09 06:08:26;;;;;;;15.20;4.80;;;;;;;2.93;91.38;99875.58;129756;1275;114812;-59
2023/11/09 06:11:31;;;;;;;10.70;4.20;;;;;;;2.94;91.51;99871.32;130188;1253;114712;-59
2023/11/09 06:14:34;;;;;;;8.70;4.00;;;;;;;2.96;91.52;99870.04;129769;1260;114877;-59
2023/11/09 06:17:36;;;;;;;11.40;5.60;;;;;;;2.99;91.68;99871.73;130092;1254;114795;-59
2023/11/09 06:20:38;;;;;;;7.10;4.50;;;;;;;3.03;91.89;99872.86;130061;1254;114798;-59
2023/11/09 06:23:42;;;;;;;9.50;4.50;;;;;;;3.08;91.92;99878.90;130045;1254;114737;-59
2023/11/09 06:26:44;;;;;;;10.40;4.50;;;;;;;3.13;92.04;99881.43;130090;1275;115462;-59
2023/11/09 06:29:46;;;;;;;7.40;3.80;;;;;;;3.19;92.14;99878.97;130129;1269;114824;-59
2023/11/09 06:32:49;;;;;;;6.70;4.30;;;;;;;3.27;92.29;99880.02;130070;1256;115100;-59
2023/11/09 06:35:51;;;;;;;8.40;4.10;;;;;;;3.36;92.23;99879.07;130138;1270;115281;-59
2023/11/09 06:38:53;;;;;;;7.50;3.90;;;;;;;3.44;92.38;99881.83;129942;1275;115023;-59
2023/11/09 06:41:55;;;;;;;6.80;3.70;;;;;;;3.55;92.45;99877.13;130085;1254;115077;-60
2023/11/09 06:44:57;;;;;;;7.60;3.80;;;;;;;3.66;92.57;99882.66;130178;1256;114740;-59
2023/11/09 06:48:00;;;;;;;6.30;3.70;;;;;;;3.78;92.44;99885.16;129643;1275;115175;-59
2023/11/09 06:51:03;;;;;;;7.30;3.70;;;;;;;3.90;92.62;99887.64;130161;1256;114726;-60
2023/11/09 06:54:06;;;;;;;27.20;4.70;;;;;;;4.04;92.62;99886.88;130099;1256;114834;-59
2023/11/09 06:57:11;;;;;;;8.40;3.30;;;;;;;4.20;92.71;99881.80;130059;1254;114805;-59
2023/11/09 07:00:14;;;;;;;6.90;3.80;;;;;;;4.37;92.91;99883.79;129832;1251;127501;-59
2023/11/09 07:03:17;;;;;;;9.00;4.00;;;;;;;4.55;92.84;99883.05;130153;1257;114792;-60
2023/11/09 07:06:20;;;;;;;9.20;3.90;;;;;;;4.76;93.10;99885.05;129827;1254;114903;-60
2023/11/09 07:09:23;;;;;;;6.40;2.90;;;;;;;5.01;93.20;99887.78;130141;1256;114715;-60
2023/11/09 07:12:26;;;;;;;8.80;3.80;;;;;;;5.31;93.16;99886.24;130203;1256;114800;-59
2023/11/09 07:15:28;;;;;;;6.10;3.00;;;;;;;5.64;93.29;99885.44;130162;1256;114832;-59
2023/11/09 07:18:31;;;;;;;12.80;3.60;;;;;;;5.90;93.13;99883.60;130150;1257;114878;-59
2023/11/09 07:21:33;;;;;;;5.30;2.90;;;;;;;6.09;92.47;99883.82;129828;1275;115220;-59
2023/11/09 07:24:37;;;;;;;3.40;2.40;;;;;;;6.23;91.88;99880.79;130102;1256;114712;-60
2023/11/09 07:27:39;;;;;;;16.30;3.50;;;;;;;6.36;92.00;99876.56;130097;1256;114805;-59
2023/11/09 07:30:47;;;;;;;5.80;3.10;;;;;;;6.50;91.79;99874.42;130085;1255;114779;-59
2023/11/09 07:33:50;;;;;;;6.70;3.50;;;;;;;6.61;91.27;99870.28;130182;1256;127665;-58
2023/11/09 07:36:52;;;;;;;8.50;3.00;;;;;;;6.73;91.37;99877.25;130151;1256;115151;-58
2023/11/09 07:39:54;;;;;;;8.00;3.40;;;;;;;6.85;91.12;99875.00;130190;1253;114792;-58
2023/11/09 07:42:57;;;;;;;10.80;3.60;;;;;;;6.97;90.95;99872.91;130094;1254;114747;-59
2023/11/09 07:45:59;;;;;;;9.80;4.20;;;;;;;7.09;90.33;99866.88;130042;1257;114805;-58
2023/11/09 07:49:03;;;;;;;9.30;3.50;;;;;;;7.26;90.82;99862.46;130085;1254;115119;-58
2023/11/09 07:52:05;;;;;;;6.50;3.10;;;;;;;7.43;90.28;99849.29;129972;1258;128479;-58
2023/11/09 07:55:10;;;;;;;9.50;4.30;;;;;;;7.58;90.02;99842.77;130124;1275;115077;-58
2023/11/09 07:58:13;;;;;;;9.70;3.80;;;;;;;7.71;89.31;99834.36;129826;1254;114909;-59
2023/11/09 08:01:16;;;;;;;7.40;3.60;;;;;;;7.80;88.54;99825.98;130125;1253;114690;-59
2023/11/09 08:04:18;;;;;;;9.60;3.60;;;;;;;7.89;87.88;99822.36;130074;1254;115224;-58
2023/11/09 08:07:25;;;;;;;7.00;4.00;;;;;;;7.99;88.37;99820.99;130207;1253;114801;-59
2023/11/09 08:10:27;;;;;;;9.60;4.20;;;;;;;8.11;87.70;99816.72;130169;1261;128803;-61
2023/11/09 08:13:29;;;;;;;6.40;4.00;;;;;;;8.24;87.64;99812.88;130155;1272;114788;-60
2023/11/09 08:16:31;;;;;;;8.10;4.10;;;;;;;8.38;87.36;99817.59;130277;1254;114721;-60
2023/11/09 08:19:33;;;;;;;5.90;3.70;;;;;;;8.51;87.12;99820.00;130161;1256;114618;-60
2023/11/09 08:22:36;;;;;;;7.80;3.90;;;;;;;8.64;87.41;99820.60;130152;1258;114699;-61
2023/11/09 08:25:38;;;;;;;12.70;4.30;;;;;;;8.79;86.56;99815.79;130310;1253;114782;-59
2023/11/09 08:28:43;;;;;;;5.80;3.40;;;;;;;8.91;86.53;99810.72;129993;1259;114940;-62
2023/11/09 08:31:45;;;;;;;10.70;4.40;;;;;;;9.05;86.27;99810.04;129822;1275;128381;-59
2023/11/09 08:34:47;;;;;;;8.30;4.30;;;;;;;9.17;86.05;99807.25;130233;1256;114779;-58
2023/11/09 08:37:53;;;;;;;9.40;3.70;;;;;;;9.31;85.70;99805.65;130298;1275;114705;-59
2023/11/09 08:40:56;;;;;;;8.90;2.90;;;;;;;9.45;85.79;99803.52;130124;1254;114709;-59
2023/11/09 08:43:58;;;;;;;5.60;2.90;;;;;;;9.58;85.45;99799.64;130216;1256;115410;-59
2023/11/09 08:47:00;;;;;;;8.90;3.00;;;;;;;9.71;85.03;99790.70;130233;1254;115240;-59
2023/11/09 08:50:09;;;;;;;5.40;2.30;;;;;;;9.85;84.49;99788.86;129791;1261;114802;-59
2023/11/09 08:53:11;;;;;;;6.60;2.70;;;;;;;10.01;84.11;99783.76;130214;1255;114838;-59
2023/11/09 08:56:14;;;;;;;7.40;3.50;;;;;;;10.14;83.30;99784.09;130196;1256;114711;-59
2023/11/09 08:59:16;;;;;;;7.50;3.60;;;;;;;10.24;82.81;99779.80;130246;1257;114755;-59
2023/11/09 09:02:19;;;;;;;5.50;4.10;;;;;;;10.33;82.04;99777.15;130323;1257;114673;-59
2023/11/09 09:05:24;;;;;;;7.30;3.60;;;;;;;10.39;81.61;99775.37;130164;1275;129027;-59
2023/11/09 09:08:27;;;;;;;12.60;3.90;;;;;;;10.47;81.76;99776.90;129774;1257;115294;-59
2023/11/09 09:11:30;;;;;;;7.40;4.20;;;;;;;10.54;81.41;99774.73;130285;1255;115063;-59
2023/11/09 09:14:32;;;;;;;8.70;3.30;;;;;;;10.64;81.58;99776.11;130168;1255;114817;-59
2023/11/09 09:17:35;;;;;;;20.10;3.80;;;;;;;10.74;80.79;99771.62;130066;1254;114785;-58
2023/11/09 09:20:38;;;;;;;6.90;3.30;;;;;;;10.79;80.18;99769.85;130142;1256;114764;-58
2023/11/09 09:23:41;;;;;;;8.30;3.20;;;;;;;10.86;80.36;99770.91;130085;1259;127696;-58
2023/11/09 09:26:43;;;;;;;7.90;3.00;;;;;;;10.94;79.63;99764.86;129914;1251;115235;-58
2023/11/09 09:29:46;;;;;;;12.10;3.40;;;;;;;11.04;80.06;99758.95;130149;1256;114814;-58
2023/11/09 09:32:53;;;;;;;4.80;2.90;;;;;;;11.13;79.18;99751.09;130317;1254;114673;-58
2023/11/09 09:35:55;;;;;;;10.50;4.50;;;;;;;11.20;78.90;99750.62;130057;1258;115145;-59
2023/11/09 09:38:58;;;;;;;5.20;3.20;;;;;;;11.27;78.60;99745.20;130033;1275;115445;-58
2023/11/09 09:42:02;;;;;;;7.70;2.90;;;;;;;11.32;78.11;99739.74;130329;1265;114699;-59
2023/11/09 09:45:05;;;;;;;5.60;2.50;;;;;;;11.37;77.33;99740.48;130112;1255;114629;-59
2023/11/09 09:48:08;;;;;;;5.00;2.30;;;;;;;11.42;77.46;99734.65;130067;1275;114801;-59
2023/11/09 09:51:13;;;;;;;4.60;2.50;;;;;;;11.46;76.77;99731.52;129849;1263;114817;-59
2023/11/09 09:54:18;;;;;;;5.60;2.40;;;;;;;11.50;76.36;99729.86;130280;1255;114855;-59
2023/11/09 09:57:20;;;;;;;2.50;2.10;;;;;;;11.54;76.24;99724.21;130074;1256;128926;-59
2023/11/09 10:00:23;;;;;;;4.30;2.20;;;;;;;11.60;75.89;99722.81;130131;1259;114757;-60
2023/11/09 10:03:26;;;;;;;5.80;2.30;;;;;;;11.62;75.26;99720.36;130195;1256;114763;-59
2023/11/09 10:06:29;;;;;;;6.00;2.00;;;;;;;11.60;74.25;99715.09;130264;1256;114705;-60
2023/11/09 10:09:32;;;;;;;4.80;2.10;;;;;;;11.59;74.11;99708.73;130228;1256;115304;-60
2023/11/09 10:12:38;;;;;;;5.30;2.10;;;;;;;11.62;74.61;99703.89;130027;1259;115892;-59
2023/11/09 10:15:41;;;;;;;4.30;2.00;;;;;;;11.65;73.76;99697.46;129869;1254;115167;-59
2023/11/09 10:18:43;;;;;;;5.00;2.10;;;;;;;11.69;73.17;99693.06;130156;1256;115168;-59
2023/11/09 10:21:46;;;;;;;5.40;2.30;;;;;;;11.74;72.86;99689.55;130005;1256;114725;-60
2023/11/09 10:24:49;;;;;;;4.50;2.30;;;;;;;11.79;72.55;99681.17;130166;1275;114730;-59
2023/11/09 10:27:52;;;;;;;3.10;1.70;;;;;;;11.87;71.81;99680.66;130353;1254;114708;-58
2023/11/09 10:30:55;;;;;;;5.80;2.20;;;;;;;11.92;71.71;99681.17;130155;1256;128696;-57
2023/11/09 10:33:58;;;;;;;3.20;2.10;;;;;;;12.03;72.32;99668.71;129911;1271;116541;-65
2023/11/09 10:37:00;;;;;;;4.50;2.20;;;;;;;12.14;71.20;99669.04;130417;1259;114721;-65
2023/11/09 10:40:06;;;;;;;5.00;1.90;;;;;;;12.24;70.63;99669.48;130489;1256;114792;-66
2023/11/09 10:43:10;;;;;;;2.70;1.80;;;;;;;12.33;70.53;99663.85;130197;1259;114895;-65
2023/11/09 10:46:16;;;;;;;3.50;2.10;;;;;;;12.38;70.02;99649.02;129967;1256;114838;-66
2023/11/09 10:49:18;;;;;;;4.00;1.90;;;;;;;12.40;69.69;99650.86;130010;1262;127915;-66
2023/11/09 10:52:24;;;;;;;2.20;1.80;;;;;;;12.41;69.65;99651.13;130437;1257;114786;-65
2023/11/09 10:55:26;;;;;;;3.00;1.70;;;;;;;12.42;68.45;99651.09;130459;1257;114869;-66
2023/11/09 10:58:28;;;;;;;2.70;1.70;;;;;;;12.42;68.09;99656.09;130443;1257;114738;-69
2023/11/09 11:01:30;;;;;;;4.50;1.80;;;;;;;12.43;67.15;99655.64;130410;1259;114702;-69
2023/11/09 11:04:34;;;;;;;8.10;2.00;;;;;;;12.42;67.12;99653.96;130142;1256;115254;-68
2023/11/09 11:07:37;;;;;;;3.70;2.00;;;;;;;12.44;67.72;99647.20;130366;1261;129040;-66
2023/11/09 11:10:52;;;;;;;2.90;1.80;;;;;;;12.45;66.54;99639.41;130399;1252;114702;-68
2023/11/09 11:13:57;;;;;;;5.90;2.00;;;;;;;12.43;66.59;99632.01;130520;1275;115186;-67
2023/11/09 11:17:32;;;;;;;5.90;2.00;;;;;;;12.42;66.16;99631.23;130703;1256;114718;-66
2023/11/09 11:21:06;;;;;;;4.10;1.70;;;;;;;12.39;65.90;99629.95;130580;1267;114615;-66
2023/11/09 11:24:47;;;;;;;5.50;2.40;;;;;;;12.36;65.57;99619.98;130426;1255;128795;-66
2023/11/09 11:27:54;;;;;;;3.00;1.90;;;;;;;12.31;65.49;99615.31;129496;1264;115404;-65
2023/11/09 11:31:03;;;;;;;4.60;2.30;;;;;;;12.28;65.00;99608.83;129758;1265;114876;-63
2023/11/09 11:34:07;;;;;;;4.50;2.10;;;;;;;12.29;65.65;99609.31;129788;1264;114812;-68
2023/11/09 11:37:09;;;;;;;4.30;2.40;;;;;;;12.35;65.37;99605.34;129487;1261;115261;-68
2023/11/09 11:40:17;;;;;;;8.00;2.60;;;;;;;12.40;65.50;99607.89;129686;1260;129051;-65
2023/11/09 11:43:20;;;;;;;4.50;2.20;;;;;;;12.48;65.95;99610.39;129569;1268;115250;-65
2023/11/09 11:46:24;;;;;;;5.10;3.10;;;;;;;12.56;65.68;99607.33;129668;1263;115280;-64
2023/11/09 11:49:26;;;;;;;3.20;2.00;;;;;;;12.63;65.16;99605.98;129630;1261;114866;-66
2023/11/09 11:52:30;;;;;;;3.80;2.10;;;;;;;12.68;64.53;99602.02;129723;1265;115477;-66
2023/11/09 11:55:34;;;;;;;6.20;2.30;;;;;;;12.70;63.36;99595.48;129831;1273;114830;-69
2023/11/09 11:58:53;;;;;;;3.70;2.10;;;;;;;12.71;63.33;99588.93;129907;1265;114809;-68
2023/11/09 12:01:55;;;;;;;3.90;1.90;;;;;;;12.74;63.86;99590.90;129570;1266;114852;-66
2023/11/09 12:04:58;;;;;;;7.70;2.50;;;;;;;12.76;63.57;99589.82;130027;1254;115138;-65
2023/11/09 12:08:02;;;;;;;5.20;2.60;;;;;;;12.80;63.34;99584.55;130553;1255;115221;-66
2023/11/09 12:11:06;;;;;;;5.20;2.00;;;;;;;12.83;63.47;99579.70;130478;1255;128115;-66
2023/11/09 12:14:09;;;;;;;7.50;1.90;;;;;;;12.85;63.16;99573.63;130177;1254;115030;-66
2023/11/09 12:17:10;;;;;;;3.60;2.00;;;;;;;12.85;62.87;99563.02;130498;1256;114699;-66
2023/11/09 12:20:16;;;;;;;2.30;1.50;;;;;;;12.84;61.98;99565.82;130591;1256;114760;-65
2023/11/09 12:23:18;;;;;;;4.20;1.60;;;;;;;12.80;62.21;99556.77;130529;1256;114695;-64
2023/11/09 12:26:21;;;;;;;2.90;1.80;;;;;;;12.78;62.45;99558.90;130687;1256;115525;-65
2023/11/09 12:29:24;;;;;;;5.30;2.20;;;;;;;12.75;62.53;99559.82;130587;1256;114689;-66
2023/11/09 12:32:26;;;;;;;3.40;2.00;;;;;;;12.71;61.96;99561.52;130522;1256;114769;-66
2023/11/09 12:35:28;;;;;;;6.70;2.10;;;;;;;12.68;61.66;99557.39;130555;1256;114870;-65
2023/11/09 12:38:33;;;;;;;4.10;2.00;;;;;;;12.65;61.32;99557.64;130487;1257;114637;-65
2023/11/09 12:41:39;;;;;;;5.20;2.20;;;;;;;12.61;61.08;99556.63;130135;1254;115222;-65
2023/11/09 12:44:43;;;;;;;3.70;1.90;;;;;;;12.59;61.56;99558.36;130039;1260;114861;-65
2023/11/09 12:47:45;;;;;;;3.50;1.60;;;;;;;12.58;61.79;99548.82;130465;1255;128019;-65
2023/11/09 12:50:47;;;;;;;3.20;2.00;;;;;;;12.55;61.30;99544.55;130384;1257;114762;-65
2023/11/09 12:53:52;;;;;;;4.70;1.90;;;;;;;12.51;61.04;99543.38;130296;1254;114752;-65
2023/11/09 12:56:57;;;;;;;4.60;2.40;;;;;;;12.49;61.61;99543.56;130094;1262;114887;-65
2023/11/09 13:00:03;;;;;;;5.60;2.10;;;;;;;12.47;61.04;99537.02;130034;1254;114898;-65
2023/11/09 13:03:07;;;;;;;5.80;3.20;;;;;;;12.46;61.28;99533.89;130305;1256;114730;-64
2023/11/09 13:06:13;;;;;;;6.40;2.40;;;;;;;12.43;61.07;99532.43;130252;1275;128992;-64
2023/11/09 13:12:33;;;;;;;3.90;2.00;;;;;;;12.44;61.45;99524.88;130118;1259;114984;-64
2023/11/09 13:15:38;;;;;;;5.00;2.40;;;;;;;12.45;61.44;99519.44;130391;1256;115215;-65
2023/11/09 13:18:41;;;;;;;6.00;2.30;;;;;;;12.49;61.66;99515.06;130370;1259;114812;-64
2023/11/09 13:21:43;;;;;;;3.80;1.90;;;;;;;12.51;61.66;99518.81;130367;1256;115209;-65
2023/11/09 13:24:48;;;;;;;4.80;2.00;;;;;;;12.54;61.53;99518.97;130352;1269;114698;-64
2023/11/09 13:27:49;;;;;;;;;;;;;;;12.57;61.70;99522.39;130085;1262;114751;-66
2023/11/09 13:30:52;;;;;;;3.80;1.80;;;;;;;12.57;61.44;99519.89;130338;1254;115081;-64
2023/11/09 13:33:54;;;;;;;5.90;2.20;;;;;;;12.59;61.64;99519.17;130325;1256;115128;-64
2023/11/09 13:36:58;;;;;;;3.50;1.90;;;;;;;12.62;61.30;99509.11;130263;1262;114909;-65
2023/11/09 13:43:27;;;;;;;2.30;1.60;;;;;;;12.65;60.03;99516.42;130017;1254;128082;-65
2023/11/09 13:46:38;;;;;;;2.20;1.80;;;;;;;12.67;59.90;99512.02;130328;1256;115150;-65
2023/11/09 13:49:40;;;;;;;3.90;1.70;;;;;;;12.68;59.48;99511.44;130368;1254;114697;-65
2023/11/09 13:52:49;;;;;;;4.30;2.20;;;;;;;12.68;58.85;99511.90;130497;1257;114737;-66
2023/11/09 13:59:13;;;;;;;4.80;2.30;;;;;;;12.68;58.90;99512.31;130140;1252;128021;-64
2023/11/09 14:02:18;;;;;;;2.80;1.80;;;;;;;12.67;58.60;99513.66;130372;1257;114767;-64
2023/11/09 14:05:22;;;;;;;2.60;1.80;;;;;;;12.61;57.98;99513.27;130378;1256;114794;-65
2023/11/09 14:08:26;;;;;;;2.70;1.90;;;;;;;12.56;57.96;99513.31;130423;1272;115324;-65
2023/11/09 14:11:31;;;;;;;5.90;2.00;;;;;;;12.49;57.71;99517.72;130369;1254;114674;-65
2023/11/09 14:14:37;;;;;;;9.90;2.10;;;;;;;12.41;58.08;99520.04;130353;1254;114715;-66
2023/11/09 14:17:51;;;;;;;4.60;2.10;;;;;;;12.33;58.11;99521.18;130523;1259;115220;-65
2023/11/09 14:21:07;;;;;;;2.60;1.90;;;;;;;12.23;58.42;99528.98;130241;1256;114779;-65
2023/11/09 14:24:22;;;;;;;2.90;2.00;;;;;;;12.14;58.23;99528.90;130522;1259;114757;-66
2023/11/09 14:27:25;;;;;;;5.00;2.40;;;;;;;12.05;58.17;99524.00;130332;1254;114804;-65
2023/11/09 14:30:32;;;;;;;8.10;2.70;;;;;;;11.95;58.22;99519.45;130517;1257;128332;-65
2023/11/09 14:33:37;;;;;;;6.70;2.90;;;;;;;11.87;58.43;99514.09;130683;1260;114811;-65